createdAt,value
2018-07-01T00:01:29.779Z,17.00
2018-07-01T00:03:59.312Z,16.90
2018-07-01T00:06:28.819Z,16.90
2018-07-01T00:08:58.430Z,16.90
2018-07-01T00:11:27.970Z,16.80
2018-07-01T00:13:57.568Z,16.80
2018-07-01T00:16:27.139Z,16.80
2018-07-01T00:18:56.707Z,16.80
2018-07-01T00:21:26.234Z,16.70
2018-07-01T00:23:55.774Z,16.70
2018-07-01T00:26:25.321Z,16.70
2018-07-01T00:28:54.800Z,16.60
2018-07-01T00:31:24.354Z,16.60
2018-07-01T00:33:53.871Z,16.60
2018-07-01T00:36:23.575Z,16.50
2018-07-01T00:38:53.039Z,16.50
2018-07-01T00:43:51.695Z,16.40
2018-07-01T00:46:21.253Z,16.40
2018-07-01T00:48:50.710Z,16.40
2018-07-01T00:51:20.260Z,16.40
2018-07-01T00:53:49.758Z,16.30
2018-07-01T00:58:48.321Z,16.30
2018-07-01T01:01:17.804Z,16.30
2018-07-01T01:03:47.306Z,16.30
2018-07-01T01:06:16.959Z,16.20
2018-07-01T01:08:46.474Z,16.10
2018-07-01T01:11:16.025Z,16.10
2018-07-01T01:13:45.549Z,16.00
2018-07-01T01:16:15.213Z,16.00
2018-07-01T01:18:44.878Z,15.90
2018-07-01T01:21:14.517Z,15.80
2018-07-01T01:23:44.033Z,15.90
2018-07-01T01:26:13.578Z,15.90
2018-07-01T01:28:43.090Z,15.90
2018-07-01T01:31:12.575Z,15.80
2018-07-01T01:33:42.113Z,15.70
2018-07-01T01:36:11.710Z,15.80
2018-07-01T01:38:42.279Z,15.70
2018-07-01T01:41:16.675Z,15.70
2018-07-01T01:43:52.414Z,15.60
2018-07-01T01:46:27.723Z,15.60
2018-07-01T01:50:00.532Z,15.50
2018-07-01T01:52:37.642Z,15.50
2018-07-01T01:55:28.471Z,15.50
2018-07-01T01:58:16.910Z,15.40
2018-07-01T02:01:20.487Z,15.40
2018-07-01T02:03:54.430Z,15.30
2018-07-01T02:06:27.848Z,15.30
2018-07-01T02:09:01.596Z,15.30
2018-07-01T02:11:33.143Z,15.20
2018-07-01T02:14:06.024Z,15.20
2018-07-01T02:16:41.568Z,15.10
2018-07-01T02:19:11.111Z,15.10
2018-07-01T02:21:40.635Z,15.10
2018-07-01T02:24:15.668Z,15.10
2018-07-01T02:26:45.211Z,15.10
2018-07-01T02:29:14.775Z,15.10
2018-07-01T02:31:44.333Z,15.10
2018-07-01T02:34:13.907Z,15.00
2018-07-01T02:39:12.463Z,15.00
2018-07-01T02:41:41.998Z,14.90
2018-07-01T02:44:11.510Z,14.90
2018-07-01T02:46:41.096Z,14.80
2018-07-01T02:49:10.610Z,14.80
2018-07-01T02:51:40.131Z,14.80
2018-07-01T02:54:09.673Z,14.70
2018-07-01T02:56:39.290Z,14.70
2018-07-01T02:59:08.767Z,14.60
2018-07-01T03:01:38.391Z,14.60
2018-07-01T03:04:07.949Z,14.60
2018-07-01T03:06:37.643Z,14.50
2018-07-01T03:09:10.100Z,14.50
2018-07-01T03:11:39.824Z,14.50
2018-07-01T03:14:09.315Z,14.50
2018-07-01T03:16:38.795Z,14.50
2018-07-01T03:19:08.457Z,14.50
2018-07-01T03:21:38.007Z,14.50
2018-07-01T03:24:07.540Z,14.50
2018-07-01T03:26:37.043Z,14.40
2018-07-01T03:29:06.541Z,14.30
2018-07-01T03:31:36.071Z,14.30
2018-07-01T03:34:05.655Z,14.30
2018-07-01T03:36:35.156Z,14.30
2018-07-01T03:41:36.023Z,14.30
2018-07-01T03:44:05.818Z,14.30
2018-07-01T03:46:35.830Z,14.30
2018-07-01T03:49:05.604Z,14.20
2018-07-01T03:51:35.156Z,14.20
2018-07-01T03:54:04.915Z,14.20
2018-07-01T03:56:34.482Z,14.20
2018-07-01T03:59:04.045Z,14.20
2018-07-01T04:01:33.531Z,14.20
2018-07-01T04:04:03.195Z,14.30
2018-07-01T04:06:32.728Z,14.30
2018-07-01T04:11:31.343Z,14.40
2018-07-01T04:14:00.827Z,14.40
2018-07-01T04:16:30.300Z,14.50
2018-07-01T04:18:59.821Z,14.50
2018-07-01T04:21:29.444Z,14.60
2018-07-01T04:23:58.919Z,14.60
2018-07-01T04:26:28.427Z,14.60
2018-07-01T04:28:58.029Z,14.70
2018-07-01T04:31:27.830Z,14.70
2018-07-01T04:33:57.338Z,14.70
2018-07-01T04:36:26.848Z,14.80
2018-07-01T04:38:56.333Z,14.80
2018-07-01T04:41:25.923Z,14.80
2018-07-01T04:43:55.827Z,14.80
2018-07-01T04:46:25.362Z,14.80
2018-07-01T04:48:54.864Z,14.80
2018-07-01T04:51:24.375Z,14.80
2018-07-01T04:53:53.834Z,14.80
2018-07-01T04:56:23.685Z,14.90
2018-07-01T04:58:53.212Z,15.00
2018-07-01T05:01:22.751Z,15.10
2018-07-01T05:03:52.308Z,15.10
2018-07-01T05:06:21.810Z,15.20
2018-07-01T05:08:51.317Z,15.30
2018-07-01T05:11:20.873Z,15.40
2018-07-01T05:13:50.355Z,15.40
2018-07-01T05:16:19.906Z,15.40
2018-07-01T05:18:49.726Z,15.40
2018-07-01T05:21:19.271Z,15.50
2018-07-01T05:23:48.909Z,15.40
2018-07-01T05:26:18.403Z,15.40
2018-07-01T05:28:47.942Z,15.40
2018-07-01T05:31:17.573Z,15.50
2018-07-01T05:33:47.085Z,15.40
2018-07-01T05:36:16.570Z,15.40
2018-07-01T05:38:46.090Z,15.50
2018-07-01T05:41:16.102Z,15.60
2018-07-01T05:43:45.630Z,15.70
2018-07-01T05:46:15.305Z,15.80
2018-07-01T05:48:44.855Z,15.80
2018-07-01T05:51:14.451Z,15.90
2018-07-01T05:53:44.112Z,15.90
2018-07-01T05:56:13.655Z,16.00
2018-07-01T05:58:43.142Z,16.00
2018-07-01T06:01:12.665Z,15.90
2018-07-01T06:03:42.210Z,16.00
2018-07-01T06:06:11.698Z,16.00
2018-07-01T06:08:41.248Z,16.10
2018-07-01T06:11:10.731Z,16.00
2018-07-01T06:13:40.251Z,16.00
2018-07-01T06:16:09.979Z,16.00
2018-07-01T06:18:39.570Z,16.10
2018-07-01T06:23:38.268Z,16.30
2018-07-01T06:26:07.812Z,16.30
2018-07-01T06:28:37.316Z,16.40
2018-07-01T06:31:07.187Z,16.30
2018-07-01T06:36:05.753Z,16.50
2018-07-01T06:38:35.251Z,16.70
2018-07-01T06:41:04.739Z,16.70
2018-07-01T06:43:34.310Z,16.80
2018-07-01T06:48:32.846Z,16.70
2018-07-01T06:51:02.378Z,16.70
2018-07-01T06:53:31.907Z,16.80
2018-07-01T06:56:01.427Z,16.90
2018-07-01T06:58:30.936Z,16.90
2018-07-01T07:01:00.601Z,17.00
2018-07-01T07:03:30.134Z,17.10
2018-07-01T07:05:59.791Z,17.10
2018-07-01T07:08:29.398Z,17.20
2018-07-01T07:10:59.021Z,17.20
2018-07-01T07:13:28.561Z,17.20
2018-07-01T07:15:58.132Z,17.30
2018-07-01T07:18:27.633Z,17.40
2018-07-01T07:20:57.152Z,17.30
2018-07-01T07:23:26.647Z,17.40
2018-07-01T07:25:56.248Z,17.40
2018-07-01T07:28:26.059Z,17.40
2018-07-01T07:30:55.587Z,17.50
2018-07-01T07:33:25.129Z,17.50
2018-07-01T07:35:54.771Z,17.60
2018-07-01T07:38:24.382Z,17.60
2018-07-01T07:40:53.980Z,17.70
2018-07-01T07:43:23.587Z,17.70
2018-07-01T07:45:53.157Z,17.80
2018-07-01T07:48:22.704Z,17.90
2018-07-01T07:50:52.223Z,18.00
2018-07-01T07:53:21.960Z,18.10
2018-07-01T07:55:51.629Z,18.10
2018-07-01T07:58:21.131Z,18.20
2018-07-01T08:00:50.732Z,18.30
2018-07-01T08:03:20.354Z,18.40
2018-07-01T08:05:49.925Z,18.40
2018-07-01T08:08:19.472Z,18.40
2018-07-01T08:13:18.255Z,18.50
2018-07-01T08:15:47.771Z,18.50
2018-07-01T08:18:18.156Z,18.60
2018-07-01T08:20:47.860Z,18.60
2018-07-01T08:23:17.383Z,18.70
2018-07-01T08:25:47.027Z,18.70
2018-07-01T08:28:16.680Z,18.80
2018-07-01T08:30:46.378Z,18.80
2018-07-01T08:33:16.013Z,18.90
2018-07-01T08:35:45.649Z,18.90
2018-07-01T08:38:15.452Z,19.00
2018-07-01T08:40:45.070Z,19.00
2018-07-01T08:43:14.800Z,19.10
2018-07-01T08:45:44.525Z,19.10
2018-07-01T08:48:14.087Z,19.10
2018-07-01T08:50:43.614Z,19.20
2018-07-01T08:53:13.205Z,19.30
2018-07-01T08:55:42.773Z,19.30
2018-07-01T08:58:12.503Z,19.30
2018-07-01T09:00:42.280Z,19.40
2018-07-01T09:03:12.120Z,19.30
2018-07-01T09:05:41.798Z,19.30
2018-07-01T09:08:11.461Z,19.40
2018-07-01T09:10:41.030Z,19.50
2018-07-01T09:13:10.758Z,19.60
2018-07-01T09:15:40.320Z,19.70
2018-07-01T09:18:09.951Z,19.70
2018-07-01T09:20:39.598Z,19.80
2018-07-01T09:23:09.161Z,19.80
2018-07-01T09:25:39.016Z,19.80
2018-07-01T09:28:08.603Z,19.80
2018-07-01T09:30:38.477Z,19.80
2018-07-01T09:33:08.157Z,19.90
2018-07-01T09:35:37.865Z,20.00
2018-07-01T09:38:07.432Z,20.10
2018-07-01T09:40:37.136Z,20.20
2018-07-01T09:43:07.000Z,20.30
2018-07-01T09:45:36.799Z,20.30
2018-07-01T09:48:06.581Z,20.30
2018-07-01T09:50:36.261Z,20.40
2018-07-01T09:53:06.078Z,20.50
2018-07-01T09:55:35.724Z,20.50
2018-07-01T09:58:05.418Z,20.60
2018-07-01T10:00:35.066Z,20.60
2018-07-01T10:03:05.046Z,20.60
2018-07-01T10:05:34.658Z,20.60
2018-07-01T10:08:04.289Z,20.70
2018-07-01T10:10:33.962Z,20.70
2018-07-01T10:13:03.878Z,20.80
2018-07-01T10:15:33.665Z,21.00
2018-07-01T10:18:04.589Z,21.10
2018-07-01T10:20:34.108Z,21.20
2018-07-01T10:23:03.697Z,21.30
2018-07-01T10:25:33.267Z,21.40
2018-07-01T10:28:02.843Z,21.40
2018-07-01T10:30:32.522Z,21.50
2018-07-01T10:33:02.214Z,21.50
2018-07-01T10:35:31.882Z,21.50
2018-07-01T10:38:01.429Z,21.50
2018-07-01T10:40:31.056Z,21.30
2018-07-01T10:43:00.617Z,21.30
2018-07-01T10:45:30.304Z,21.40
2018-07-01T10:47:59.963Z,21.60
2018-07-01T10:50:29.512Z,21.60
2018-07-01T10:52:59.150Z,21.70
2018-07-01T10:55:28.800Z,21.90
2018-07-01T10:57:58.393Z,22.00
2018-07-01T11:00:27.965Z,22.10
2018-07-01T11:02:57.794Z,22.20
2018-07-01T11:05:27.685Z,22.40
2018-07-01T11:07:57.950Z,22.40
2018-07-01T11:10:27.561Z,22.50
2018-07-01T11:12:57.217Z,22.60
2018-07-01T11:15:26.904Z,22.60
2018-07-01T11:17:56.549Z,22.60
2018-07-01T11:20:26.267Z,22.70
2018-07-01T11:22:55.862Z,22.70
2018-07-01T11:25:25.466Z,22.80
2018-07-01T11:27:55.054Z,22.90
2018-07-01T11:30:24.675Z,23.00
2018-07-01T11:32:54.197Z,23.10
2018-07-01T11:35:23.860Z,23.10
2018-07-01T11:37:53.507Z,23.10
2018-07-01T11:40:23.141Z,23.10
2018-07-01T11:42:52.774Z,23.10
2018-07-01T11:45:22.537Z,23.10
2018-07-01T11:47:52.209Z,23.20
2018-07-01T11:50:21.845Z,23.20
2018-07-01T11:52:51.482Z,23.30
2018-07-01T11:55:21.157Z,23.40
2018-07-01T11:57:50.816Z,23.50
2018-07-01T12:00:20.391Z,23.60
2018-07-01T12:02:49.984Z,23.70
2018-07-01T12:05:19.666Z,23.70
2018-07-01T12:07:49.164Z,23.80
2018-07-01T12:10:18.771Z,23.90
2018-07-01T12:12:48.444Z,24.00
2018-07-01T12:15:17.977Z,24.00
2018-07-01T12:17:47.634Z,24.10
2018-07-01T12:20:17.166Z,24.30
2018-07-01T12:22:46.782Z,24.30
2018-07-01T12:25:16.943Z,24.30
2018-07-01T12:27:46.799Z,24.20
2018-07-01T12:30:16.391Z,24.20
2018-07-01T12:32:46.021Z,24.10
2018-07-01T12:35:15.601Z,24.20
2018-07-01T12:37:45.342Z,24.20
2018-07-01T12:40:15.020Z,24.10
2018-07-01T12:42:44.676Z,24.20
2018-07-01T12:45:14.401Z,24.40
2018-07-01T12:47:44.183Z,24.40
2018-07-01T12:52:42.997Z,24.70
2018-07-01T12:55:12.806Z,24.90
2018-07-01T12:57:42.470Z,24.90
2018-07-01T13:00:12.070Z,25.00
2018-07-01T13:02:41.632Z,25.00
2018-07-01T13:05:11.309Z,25.00
2018-07-01T13:07:41.260Z,24.90
2018-07-01T13:10:10.849Z,24.90
2018-07-01T13:12:40.700Z,25.10
2018-07-01T13:15:10.297Z,25.10
2018-07-01T13:17:39.875Z,25.20
2018-07-01T13:20:09.435Z,25.20
2018-07-01T13:22:39.222Z,25.30
2018-07-01T13:25:09.190Z,25.30
2018-07-01T13:27:38.851Z,25.40
2018-07-01T13:30:08.605Z,25.40
2018-07-01T13:32:39.133Z,25.50
2018-07-01T13:35:08.763Z,25.50
2018-07-01T13:37:38.465Z,25.60
2018-07-01T13:40:08.219Z,25.60
2018-07-01T13:42:37.846Z,25.60
2018-07-01T13:45:08.421Z,25.70
2018-07-01T13:47:38.328Z,25.80
2018-07-01T13:50:08.261Z,26.10
2018-07-01T13:52:38.206Z,26.10
2018-07-01T13:55:08.084Z,26.10
2018-07-01T13:57:37.841Z,26.20
2018-07-01T14:00:08.386Z,26.10
2018-07-01T14:02:38.069Z,26.20
2018-07-01T14:05:07.692Z,26.20
2018-07-01T14:07:37.355Z,26.20
2018-07-01T14:10:07.100Z,26.20
2018-07-01T14:12:36.692Z,26.20
2018-07-01T14:15:06.519Z,26.20
2018-07-01T14:17:36.132Z,26.30
2018-07-01T14:20:07.617Z,26.40
2018-07-01T14:22:37.374Z,26.50
2018-07-01T14:25:07.607Z,26.60
2018-07-01T14:27:37.243Z,26.70
2018-07-01T14:30:07.144Z,26.70
2018-07-01T14:32:36.753Z,26.80
2018-07-01T14:35:06.309Z,26.80
2018-07-01T14:37:35.999Z,26.80
2018-07-01T14:40:05.691Z,26.80
2018-07-01T14:42:35.340Z,26.80
2018-07-01T14:45:05.004Z,26.90
2018-07-01T14:47:34.631Z,27.10
2018-07-01T14:50:04.603Z,27.20
2018-07-01T14:52:34.184Z,27.40
2018-07-01T14:55:03.907Z,27.60
2018-07-01T14:57:33.475Z,27.60
2018-07-01T15:00:03.070Z,27.70
2018-07-01T15:02:32.614Z,28.20
2018-07-01T15:07:31.301Z,31.30
2018-07-01T15:10:01.134Z,32.90
2018-07-01T15:12:30.669Z,35.00
2018-07-01T15:15:00.425Z,36.60
2018-07-01T15:17:30.046Z,38.40
2018-07-01T15:19:59.699Z,40.30
2018-07-01T15:22:29.307Z,42.20
2018-07-01T15:24:58.900Z,43.70
2018-07-01T15:27:28.680Z,44.60
2018-07-01T15:29:58.356Z,45.20
2018-07-01T15:32:27.914Z,44.90
2018-07-01T15:34:57.524Z,43.90
2018-07-01T15:37:27.057Z,43.90
2018-07-01T15:39:56.682Z,44.70
2018-07-01T15:42:26.428Z,45.50
2018-07-01T15:44:55.992Z,46.40
2018-07-01T15:47:25.535Z,46.30
2018-07-01T15:49:55.088Z,46.20
2018-07-01T15:52:24.694Z,45.30
2018-07-01T15:54:54.348Z,44.10
2018-07-01T15:57:24.093Z,43.50
2018-07-01T15:59:53.762Z,42.70
2018-07-01T16:02:23.408Z,41.90
2018-07-01T16:04:53.005Z,41.00
2018-07-01T16:07:22.581Z,39.30
2018-07-01T16:12:21.254Z,37.00
2018-07-01T16:14:50.871Z,36.60
2018-07-01T16:19:49.619Z,35.40
2018-07-01T16:22:19.140Z,34.40
2018-07-01T16:24:54.166Z,33.30
2018-07-01T16:27:38.689Z,32.40
2018-07-01T16:32:37.550Z,30.80
2018-07-01T16:35:07.193Z,30.00
2018-07-01T16:40:05.837Z,29.10
2018-07-01T16:42:35.351Z,28.80
2018-07-01T16:45:05.195Z,28.40
2018-07-01T16:47:34.743Z,28.00
2018-07-01T16:50:04.377Z,27.70
2018-07-01T16:52:33.991Z,27.50
2018-07-01T16:55:03.524Z,27.30
2018-07-01T16:57:33.126Z,27.20
2018-07-01T17:00:02.635Z,26.90
2018-07-01T17:02:32.179Z,26.70
2018-07-01T17:05:01.710Z,26.50
2018-07-01T17:07:31.329Z,26.30
2018-07-01T17:10:00.995Z,26.10
2018-07-01T17:12:30.634Z,26.00
2018-07-01T17:15:00.193Z,25.80
2018-07-01T17:17:29.788Z,25.60
2018-07-01T17:19:59.399Z,25.40
2018-07-01T17:22:29.043Z,25.30
2018-07-01T17:24:58.597Z,25.20
2018-07-01T17:27:28.096Z,25.00
2018-07-01T17:32:32.131Z,24.60
2018-07-01T17:35:01.745Z,24.40
2018-07-01T17:40:00.431Z,24.30
2018-07-01T17:42:29.954Z,24.20
2018-07-01T17:44:59.592Z,24.10
2018-07-01T17:47:29.186Z,24.00
2018-07-01T17:49:58.888Z,23.90
2018-07-01T17:52:28.520Z,23.70
2018-07-01T17:54:58.124Z,23.50
2018-07-01T17:57:27.805Z,23.40
2018-07-01T17:59:57.487Z,23.40
2018-07-01T18:02:27.244Z,23.30
2018-07-01T18:04:56.915Z,23.20
2018-07-01T18:07:26.630Z,23.00
2018-07-01T18:09:56.363Z,22.80
2018-07-01T18:12:26.023Z,22.70
2018-07-01T18:14:55.593Z,22.60
2018-07-01T18:17:25.713Z,22.40
2018-07-01T18:19:55.331Z,22.40
2018-07-01T18:22:52.494Z,22.30
2018-07-01T18:25:06.913Z,22.20
2018-07-01T18:27:24.646Z,22.10
2018-07-01T18:29:54.298Z,22.00
2018-07-01T18:32:23.879Z,21.90
2018-07-01T18:34:53.577Z,21.90
2018-07-01T18:37:23.217Z,21.90
2018-07-01T18:39:52.766Z,21.80
2018-07-01T18:42:22.447Z,21.70
2018-07-01T18:44:52.167Z,21.60
2018-07-01T18:47:21.836Z,21.60
2018-07-01T18:49:51.384Z,21.50
2018-07-01T18:52:21.172Z,21.40
2018-07-01T18:54:50.815Z,21.40
2018-07-01T18:57:20.648Z,21.20
2018-07-01T18:59:50.275Z,21.20
2018-07-01T19:02:19.929Z,21.10
2018-07-01T19:04:49.639Z,21.10
2018-07-01T19:07:19.258Z,21.00
2018-07-01T19:09:48.989Z,21.00
2018-07-01T19:12:18.827Z,20.90
2018-07-01T19:14:48.451Z,20.90
2018-07-01T19:17:18.086Z,20.80
2018-07-01T19:19:47.755Z,20.70
2018-07-01T19:22:17.404Z,20.70
2018-07-01T19:24:47.072Z,20.60
2018-07-01T19:27:16.717Z,20.50
2018-07-01T19:29:46.458Z,20.40
2018-07-01T19:32:16.191Z,20.40
2018-07-01T19:34:45.855Z,20.30
2018-07-01T19:37:15.576Z,20.30
2018-07-01T19:39:45.331Z,20.20
2018-07-01T19:42:15.032Z,20.10
2018-07-01T19:44:44.594Z,20.10
2018-07-01T19:47:14.238Z,20.00
2018-07-01T19:49:43.856Z,20.00
2018-07-01T19:52:13.494Z,19.80
2018-07-01T19:54:43.155Z,19.70
2018-07-01T19:57:12.735Z,19.70
2018-07-01T19:59:42.402Z,19.60
2018-07-01T20:02:12.057Z,19.50
2018-07-01T20:04:41.774Z,19.50
2018-07-01T20:07:11.422Z,19.50
2018-07-01T20:09:41.041Z,19.40
2018-07-01T20:12:10.656Z,19.40
2018-07-01T20:14:40.348Z,19.30
2018-07-01T20:17:10.048Z,19.20
2018-07-01T20:19:39.732Z,19.20
2018-07-01T20:22:09.782Z,19.20
2018-07-01T20:24:39.438Z,19.10
2018-07-01T20:27:09.374Z,19.00
2018-07-01T20:29:39.038Z,19.00
2018-07-01T20:32:08.791Z,18.90
2018-07-01T20:34:38.405Z,18.90
2018-07-01T20:37:09.353Z,18.80
2018-07-01T20:39:38.976Z,18.80
2018-07-01T20:42:08.782Z,18.70
2018-07-01T20:44:38.431Z,18.70
2018-07-01T20:47:08.352Z,18.70
2018-07-01T20:49:37.947Z,18.60
2018-07-01T20:52:07.639Z,18.50
2018-07-01T20:54:37.371Z,18.50
2018-07-01T20:57:07.439Z,18.40
2018-07-01T20:59:37.067Z,18.30
2018-07-01T21:02:06.897Z,18.20
2018-07-01T21:04:36.481Z,18.20
2018-07-01T21:07:06.873Z,18.20
2018-07-01T21:09:36.600Z,18.10
2018-07-01T21:12:06.305Z,18.10
2018-07-01T21:14:35.822Z,18.00
2018-07-01T21:17:06.078Z,17.90
2018-07-01T21:19:35.628Z,17.80
2018-07-01T21:22:05.267Z,17.80
2018-07-01T21:24:34.837Z,17.70
2018-07-01T21:27:04.825Z,17.60
2018-07-01T21:29:34.404Z,17.60
2018-07-01T21:32:04.033Z,17.60
2018-07-01T21:34:33.580Z,17.50
2018-07-01T21:37:03.166Z,17.50
2018-07-01T21:39:32.671Z,17.50
2018-07-01T21:42:02.257Z,17.40
2018-07-01T21:44:31.793Z,17.40
2018-07-01T21:47:01.349Z,17.30
2018-07-01T21:49:30.846Z,17.30
2018-07-01T21:52:00.379Z,17.30
2018-07-01T21:54:29.882Z,17.30
2018-07-01T21:56:59.428Z,17.20
2018-07-01T21:59:28.953Z,17.10
2018-07-01T22:01:58.583Z,17.10
2018-07-01T22:07:00.140Z,17.10
2018-07-01T22:09:30.898Z,17.10
2018-07-01T22:12:11.770Z,17.10
2018-07-01T22:14:52.743Z,17.00
2018-07-01T22:17:22.283Z,16.90
2018-07-01T22:19:51.817Z,16.90
2018-07-01T22:22:21.379Z,16.90
2018-07-01T22:24:50.890Z,16.90
2018-07-01T22:27:20.409Z,16.80
2018-07-01T22:29:49.900Z,16.70
2018-07-01T22:32:19.430Z,16.60
2018-07-01T22:34:48.966Z,16.60
2018-07-01T22:37:18.517Z,16.60
2018-07-01T22:39:48.135Z,16.60
2018-07-01T22:42:17.687Z,16.50
2018-07-01T22:44:47.295Z,16.50
2018-07-01T22:47:16.827Z,16.40
2018-07-01T22:49:46.394Z,16.40
2018-07-01T22:52:15.849Z,16.40
2018-07-01T22:54:45.397Z,16.40
2018-07-01T22:57:14.913Z,16.40
2018-07-01T23:05:13.423Z,16.30
2018-07-01T23:07:42.992Z,16.30
2018-07-01T23:10:12.507Z,16.20
2018-07-01T23:12:42.515Z,16.20
2018-07-01T23:15:12.834Z,16.20
2018-07-01T23:17:42.951Z,16.20
2018-07-01T23:20:12.470Z,16.10
2018-07-01T23:22:42.272Z,16.10
2018-07-01T23:25:12.619Z,16.10
2018-07-01T23:27:42.934Z,16.00
2018-07-01T23:30:12.469Z,15.90
2018-07-01T23:32:42.173Z,15.90
2018-07-01T23:35:11.640Z,15.80
2018-07-01T23:37:41.270Z,15.70
2018-07-01T23:40:11.344Z,15.70
2018-07-01T23:42:41.676Z,15.70
2018-07-01T23:45:13.460Z,15.70
2018-07-01T23:47:43.264Z,15.60
2018-07-01T23:50:12.761Z,15.60
2018-07-01T23:52:42.320Z,15.50
2018-07-01T23:55:12.023Z,15.50
2018-07-01T23:57:41.496Z,15.40
